Time;durP1;ratioP1;P1;durP2;ratioP2;P2;SDS_P1;SDS_P2;PMS_P1;PMS_P2;Temp;Humidity;BMP_temperature;BMP_pressure;BME280_temperature;BME280_humidity;BME280_pressure;Samples;Min_cycle;Max_cycle;Signal;HPM_P1;HPM_P2
2022/09/25 00:00:25;;;;;;;1.33;0.60;;;12.10;99.90;;;;;;6082743;23;20023;-83
2022/09/25 00:02:52;;;;;;;1.25;0.80;;;12.00;99.90;;;;;;6082445;23;20621;-82
2022/09/25 00:05:20;;;;;;;2.78;0.80;;;12.00;99.90;;;;;;6082195;23;20026;-83
2022/09/25 00:07:47;;;;;;;0.98;0.60;;;12.00;99.90;;;;;;6058379;23;20030;-82
2022/09/25 00:10:17;;;;;;;1.67;0.90;;;11.90;99.90;;;;;;6059345;23;20026;-82
2022/09/25 00:12:44;;;;;;;1.05;0.57;;;11.90;99.90;;;;;;6058406;23;20026;-82
2022/09/25 00:15:11;;;;;;;1.27;0.60;;;11.90;99.90;;;;;;6082920;23;20507;-82
2022/09/25 00:17:38;;;;;;;1.23;0.70;;;11.90;99.90;;;;;;6082351;23;20478;-82
2022/09/25 00:20:05;;;;;;;1.00;0.50;;;11.90;99.90;;;;;;6082332;23;20442;-82
2022/09/25 00:22:32;;;;;;;0.68;0.43;;;11.80;99.90;;;;;;6082109;23;20038;-82
2022/09/25 00:25:01;;;;;;;0.68;0.50;;;11.80;99.90;;;;;;6107191;23;20023;-82
2022/09/25 00:27:28;;;;;;;0.95;0.55;;;11.80;99.90;;;;;;6082619;23;20101;-82
2022/09/25 00:29:55;;;;;;;0.80;0.40;;;11.80;99.90;;;;;;6082607;23;20030;-82
2022/09/25 00:32:22;;;;;;;0.52;0.40;;;11.80;99.90;;;;;;6081406;23;20336;-82
2022/09/25 00:34:48;;;;;;;1.63;0.60;;;11.80;99.90;;;;;;6082321;23;20522;-82
2022/09/25 00:37:15;;;;;;;1.23;0.63;;;11.70;99.90;;;;;;6057955;23;20337;-81
2022/09/25 00:39:42;;;;;;;1.15;0.57;;;11.70;99.90;;;;;;6058790;23;20101;-82
2022/09/25 00:42:11;;;;;;;1.98;0.60;;;11.70;99.90;;;;;;6080214;23;20023;-81
2022/09/25 00:44:47;;;;;;;1.90;0.57;;;11.70;99.90;;;;;;6080245;23;20105;-82
2022/09/25 00:47:21;;;;;;;2.47;1.02;;;11.70;99.90;;;;;;6080999;23;20044;-82
2022/09/25 00:49:48;;;;;;;1.92;0.70;;;11.70;99.90;;;;;;6082270;23;20034;-81
2022/09/25 00:52:15;;;;;;;0.90;0.60;;;11.60;99.90;;;;;;6081633;23;20073;-82
2022/09/25 00:55:04;;;;;;;0.80;0.63;;;11.60;99.90;;;;;;6082178;23;20065;-82
2022/09/25 00:57:31;;;;;;;1.15;0.80;;;11.60;99.90;;;;;;6082761;23;20026;-82
2022/09/25 01:00:07;;;;;;;0.50;0.45;;;11.60;99.90;;;;;;6084306;23;20048;-82
2022/09/25 01:02:38;;;;;;;2.45;1.02;;;11.60;99.90;;;;;;6059146;23;20426;-82
2022/09/25 01:05:08;;;;;;;2.55;1.10;;;11.60;99.90;;;;;;6083628;23;20911;-82
2022/09/25 01:07:37;;;;;;;2.08;1.25;;;11.50;99.90;;;;;;6084600;23;20026;-82
2022/09/25 01:10:05;;;;;;;1.67;0.80;;;11.50;99.90;;;;;;6060282;23;20126;-82
2022/09/25 01:12:34;;;;;;;1.77;0.80;;;11.50;99.90;;;;;;6060038;23;20022;-82
2022/09/25 01:15:01;;;;;;;1.05;0.68;;;11.50;99.90;;;;;;6084325;23;20026;-83
2022/09/25 01:17:31;;;;;;;2.63;1.05;;;11.50;99.90;;;;;;6083047;23;20025;-82
2022/09/25 01:20:46;;;;;;;1.50;0.80;;;11.50;99.90;;;;;;6083368;23;20117;-83
2022/09/25 01:23:35;;;;;;;1.35;0.60;;;11.50;99.90;;;;;;6077801;23;20022;-83
2022/09/25 01:26:23;;;;;;;0.88;0.50;;;11.40;99.90;;;;;;6084061;23;20030;-82
2022/09/25 01:29:14;;;;;;;0.70;0.35;;;11.40;99.90;;;;;;6083605;23;20072;-83
2022/09/25 01:31:50;;;;;;;0.70;0.40;;;11.40;99.90;;;;;;6083627;23;20031;-82
2022/09/25 01:34:25;;;;;;;0.40;0.30;;;11.30;99.90;;;;;;6084815;23;20023;-82
2022/09/25 01:36:58;;;;;;;0.85;0.35;;;11.30;99.90;;;;;;6085698;23;20400;-83
2022/09/25 01:39:31;;;;;;;1.60;0.70;;;11.30;99.90;;;;;;6062669;23;20026;-83
2022/09/25 01:42:20;;;;;;;1.27;0.70;;;11.30;99.90;;;;;;6085910;23;20050;-83
2022/09/25 01:44:56;;;;;;;0.30;0.30;;;11.30;99.90;;;;;;6090232;23;20140;-82
2022/09/25 01:47:27;;;;;;;2.50;0.65;;;11.30;99.90;;;;;;6084492;23;20026;-83
2022/09/25 01:49:58;;;;;;;2.10;0.55;;;11.30;99.90;;;;;;6061876;23;20058;-82
2022/09/25 01:52:38;;;;;;;1.75;0.68;;;11.30;99.90;;;;;;6085023;23;20032;-82
2022/09/25 01:55:21;;;;;;;2.28;0.52;;;11.30;99.90;;;;;;6085783;23;20213;-82
2022/09/25 01:57:58;;;;;;;1.58;0.50;;;11.30;99.90;;;;;;6085363;23;20050;-82
2022/09/25 02:00:25;;;;;;;0.68;0.60;;;11.40;99.90;;;;;;6086267;23;20026;-82
2022/09/25 02:03:07;;;;;;;0.30;0.30;;;11.40;99.90;;;;;;6084560;23;20025;-83
2022/09/25 02:05:38;;;;;;;1.13;0.60;;;11.40;99.90;;;;;;6061278;23;20332;-82
2022/09/25 02:08:09;;;;;;;1.67;0.50;;;11.40;99.90;;;;;;6060605;23;20491;-82
2022/09/25 02:10:47;;;;;;;0.68;0.20;;;11.40;99.90;;;;;;6109359;23;20049;-82
2022/09/25 02:13:16;;;;;;;0.90;0.30;;;11.40;99.90;;;;;;6085516;23;20044;-83
2022/09/25 02:15:51;;;;;;;0.77;0.40;;;11.40;99.90;;;;;;6085686;23;20032;-82
2022/09/25 02:21:24;;;;;;;1.60;0.40;;;11.30;99.90;;;;;;6085234;23;20025;-82
2022/09/25 02:24:04;;;;;;;1.08;0.60;;;11.30;99.90;;;;;;6061291;23;20101;-83
2022/09/25 02:26:32;;;;;;;1.33;0.50;;;11.20;99.90;;;;;;6061260;23;20023;-82
2022/09/25 02:28:59;;;;;;;1.15;0.50;;;11.20;99.90;;;;;;6085529;23;20040;-82
2022/09/25 02:31:34;;;;;;;0.88;0.70;;;11.10;99.90;;;;;;6084553;23;20471;-82
2022/09/25 02:34:02;;;;;;;1.00;0.50;;;11.10;99.90;;;;;;6062626;23;20035;-82
2022/09/25 02:36:31;;;;;;;0.60;0.40;;;11.00;99.90;;;;;;6061163;23;20022;-82
2022/09/25 02:38:58;;;;;;;0.50;0.50;;;11.00;99.90;;;;;;6061636;23;20093;-82
2022/09/25 02:42:00;;;;;;;0.65;0.50;;;11.00;99.90;;;;;;6061038;23;20132;-82
2022/09/25 02:44:30;;;;;;;0.25;0.25;;;10.90;99.90;;;;;;6087813;23;20112;-82
2022/09/25 02:47:12;;;;;;;0.65;0.47;;;10.90;99.90;;;;;;6084397;23;20046;-82
2022/09/25 02:50:04;;;;;;;0.57;0.40;;;10.80;99.90;;;;;;6085023;23;20025;-82
2022/09/25 02:52:44;;;;;;;0.30;0.22;;;10.80;99.90;;;;;;6084446;23;20050;-82
2022/09/25 02:55:30;;;;;;;0.80;0.50;;;10.70;99.90;;;;;;6085887;23;20030;-82
2022/09/25 02:58:33;;;;;;;0.52;0.50;;;10.70;99.90;;;;;;6061421;23;20022;-82
2022/09/25 03:00:59;;;;;;;0.75;0.50;;;10.60;99.90;;;;;;6068834;23;20024;-82
2022/09/25 03:03:26;;;;;;;1.00;0.50;;;10.60;99.90;;;;;;6088643;23;20021;-82
2022/09/25 03:05:56;;;;;;;0.65;0.52;;;10.60;99.90;;;;;;6089801;23;20741;-82
2022/09/25 03:08:40;;;;;;;2.75;0.70;;;10.50;99.90;;;;;;6089430;23;20045;-82
2022/09/25 03:11:16;;;;;;;0.95;0.47;;;10.50;99.90;;;;;;6069974;23;20022;-82
2022/09/25 03:13:43;;;;;;;0.82;0.50;;;10.50;99.90;;;;;;6090417;23;20049;-82
2022/09/25 03:16:49;;;;;;;0.68;0.50;;;10.40;99.90;;;;;;6114294;23;20096;-81
2022/09/25 03:19:18;;;;;;;0.82;0.70;;;10.40;99.90;;;;;;5997563;23;20092;-82
2022/09/25 03:21:46;;;;;;;0.40;0.40;;;10.40;99.90;;;;;;5973072;23;20046;-82
2022/09/25 03:24:13;;;;;;;2.45;0.75;;;10.40;99.90;;;;;;6009203;23;20062;-82
2022/09/25 03:26:41;;;;;;;1.55;0.70;;;10.30;99.90;;;;;;6090258;23;20022;-83
2022/09/25 03:29:08;;;;;;;1.33;0.52;;;10.30;99.90;;;;;;6090476;23;20021;-81
2022/09/25 03:31:35;;;;;;;1.10;0.60;;;10.30;99.90;;;;;;6088896;23;20558;-82
2022/09/25 03:34:02;;;;;;;2.47;1.05;;;10.20;99.90;;;;;;6089483;23;20104;-82
2022/09/25 03:36:29;;;;;;;1.58;0.82;;;10.20;99.90;;;;;;6090040;23;20097;-82
2022/09/25 03:38:57;;;;;;;3.28;0.90;;;10.20;99.90;;;;;;6066205;23;20113;-82
2022/09/25 03:41:34;;;;;;;1.80;1.00;;;10.20;99.90;;;;;;6089850;23;20018;-82
2022/09/25 03:44:01;;;;;;;1.33;1.00;;;10.10;99.90;;;;;;6090736;23;20074;-83
2022/09/25 03:46:29;;;;;;;3.08;1.40;;;10.10;99.90;;;;;;6089319;23;20131;-82
2022/09/25 03:48:57;;;;;;;2.50;1.40;;;10.10;99.90;;;;;;6089605;23;20026;-82
2022/09/25 03:51:24;;;;;;;2.40;1.40;;;10.00;99.90;;;;;;6089814;23;20056;-82
2022/09/25 03:53:52;;;;;;;4.22;1.70;;;10.00;99.90;;;;;;6066218;23;20060;-82
2022/09/25 03:56:21;;;;;;;2.85;1.42;;;10.00;99.90;;;;;;6090866;23;20024;-83
2022/09/25 03:58:49;;;;;;;2.00;1.27;;;10.00;99.90;;;;;;6091271;23;20586;-82
2022/09/25 04:01:18;;;;;;;1.20;0.93;;;10.00;99.90;;;;;;6089993;23;20438;-82
2022/09/25 04:03:46;;;;;;;2.17;1.08;;;10.00;99.90;;;;;;6091085;23;20056;-83
2022/09/25 04:06:17;;;;;;;2.63;1.33;;;9.90;99.90;;;;;;6092006;23;20041;-83
2022/09/25 04:08:44;;;;;;;1.83;0.70;;;9.90;99.90;;;;;;6091062;23;20072;-82
2022/09/25 04:11:11;;;;;;;1.48;0.90;;;9.90;99.90;;;;;;6093697;23;20053;-83
2022/09/25 04:13:40;;;;;;;1.15;0.80;;;9.90;99.90;;;;;;6070318;23;20505;-83
2022/09/25 04:16:08;;;;;;;2.42;0.88;;;9.80;99.90;;;;;;6093761;23;20021;-81
2022/09/25 04:18:34;;;;;;;2.50;1.08;;;9.90;99.90;;;;;;6090194;23;20108;-82
2022/09/25 04:21:03;;;;;;;1.20;0.80;;;9.80;99.90;;;;;;6089659;23;20018;-82
2022/09/25 04:23:30;;;;;;;1.40;0.85;;;9.80;99.90;;;;;;6090231;23;20030;-83
2022/09/25 04:25:57;;;;;;;1.45;0.93;;;9.80;99.90;;;;;;6090412;23;20018;-83
2022/09/25 04:28:25;;;;;;;2.33;0.80;;;9.80;99.90;;;;;;6090208;23;20061;-82
2022/09/25 04:30:52;;;;;;;1.08;0.88;;;9.80;99.90;;;;;;6066685;23;20849;-83
2022/09/25 04:36:04;;;;;;;1.55;0.82;;;9.70;99.90;;;;;;6094594;23;20100;-82
2022/09/25 04:38:31;;;;;;;1.42;0.77;;;9.70;99.90;;;;;;6091491;23;20072;-83
2022/09/25 04:40:59;;;;;;;3.22;1.13;;;9.70;99.90;;;;;;6092559;23;20070;-82
2022/09/25 04:43:28;;;;;;;0.95;0.70;;;9.60;99.90;;;;;;6092474;23;20026;-82
2022/09/25 04:46:06;;;;;;;0.75;0.63;;;9.60;99.90;;;;;;6092105;23;20084;-82
2022/09/25 04:48:33;;;;;;;1.15;0.50;;;9.60;99.90;;;;;;6091798;23;20401;-83
2022/09/25 04:51:00;;;;;;;1.13;0.70;;;9.60;99.90;;;;;;6091780;23;20102;-83
2022/09/25 04:53:28;;;;;;;1.73;0.98;;;9.60;99.90;;;;;;6090947;23;20053;-83
2022/09/25 04:56:10;;;;;;;0.90;0.65;;;9.50;99.90;;;;;;6068448;23;20209;-83
2022/09/25 04:58:46;;;;;;;0.55;0.50;;;9.60;99.90;;;;;;6094391;23;20038;-83
2022/09/25 05:01:13;;;;;;;0.85;0.60;;;9.50;99.90;;;;;;6090852;23;20473;-82
2022/09/25 05:03:40;;;;;;;1.40;0.70;;;9.60;99.90;;;;;;6088756;23;20034;-82
2022/09/25 05:06:07;;;;;;;1.40;0.77;;;9.50;99.90;;;;;;6089432;23;20140;-83
2022/09/25 05:08:34;;;;;;;1.20;0.60;;;9.50;99.90;;;;;;6088127;23;20100;-82
2022/09/25 05:11:02;;;;;;;2.17;0.60;;;9.50;99.90;;;;;;6065730;23;20017;-82
2022/09/25 05:13:29;;;;;;;1.77;0.60;;;9.50;99.90;;;;;;6064691;23;20041;-82
2022/09/25 05:15:56;;;;;;;1.02;0.70;;;9.50;99.90;;;;;;6089338;23;20566;-82
2022/09/25 05:18:24;;;;;;;1.05;0.57;;;9.50;99.90;;;;;;6064831;23;20061;-81
2022/09/25 05:20:52;;;;;;;0.88;0.60;;;9.40;99.90;;;;;;6089563;23;20582;-82
2022/09/25 05:23:19;;;;;;;1.00;0.60;;;9.40;99.90;;;;;;6088169;23;20057;-83
2022/09/25 05:25:54;;;;;;;0.88;0.50;;;9.40;99.90;;;;;;6089578;23;20033;-82
2022/09/25 05:28:22;;;;;;;1.05;0.60;;;9.40;99.90;;;;;;6065995;23;20041;-85
2022/09/25 05:30:49;;;;;;;0.77;0.55;;;9.40;99.90;;;;;;6042131;23;20094;-82
2022/09/25 05:33:17;;;;;;;0.50;0.40;;;9.40;99.90;;;;;;6065067;23;20100;-82
2022/09/25 05:35:44;;;;;;;0.55;0.40;;;9.40;99.90;;;;;;6115556;23;20026;-82
2022/09/25 05:38:11;;;;;;;1.75;0.80;;;9.40;99.90;;;;;;6088853;23;20548;-83
2022/09/25 05:40:38;;;;;;;1.55;0.68;;;9.30;99.90;;;;;;6066074;23;20056;-83
2022/09/25 05:43:05;;;;;;;1.10;0.60;;;9.30;99.90;;;;;;6065747;23;20018;-83
2022/09/25 05:45:33;;;;;;;1.05;0.50;;;9.30;99.90;;;;;;6089336;23;20029;-82
2022/09/25 05:48:07;;;;;;;1.77;0.60;;;9.30;99.90;;;;;;6088638;23;20461;-83
2022/09/25 05:50:34;;;;;;;0.75;0.57;;;9.30;99.90;;;;;;6088680;23;20109;-83
2022/09/25 05:53:02;;;;;;;0.70;0.40;;;9.30;99.90;;;;;;6088486;23;20070;-82
2022/09/25 05:55:29;;;;;;;0.90;0.60;;;9.30;99.90;;;;;;6089539;23;20029;-83
2022/09/25 05:58:01;;;;;;;0.40;0.30;;;9.30;99.90;;;;;;6088716;23;20391;-82
2022/09/25 06:00:31;;;;;;;0.57;0.40;;;9.30;99.90;;;;;;6089654;23;20418;-82
2022/09/25 06:02:59;;;;;;;0.38;0.38;;;9.30;99.90;;;;;;6088587;23;20022;-82
2022/09/25 06:05:26;;;;;;;0.98;0.40;;;9.30;99.90;;;;;;6087854;23;20136;-82
2022/09/25 06:07:54;;;;;;;0.43;0.40;;;9.30;99.90;;;;;;6087545;23;20045;-81
2022/09/25 06:10:21;;;;;;;0.22;0.20;;;9.30;99.90;;;;;;6088673;23;20018;-83
2022/09/25 06:12:48;;;;;;;0.20;0.20;;;9.30;99.90;;;;;;6087964;23;20034;-83
2022/09/25 06:15:15;;;;;;;0.40;0.20;;;9.30;99.90;;;;;;6065357;23;20330;-84
2022/09/25 06:17:42;;;;;;;0.25;0.25;;;9.30;99.90;;;;;;6064052;23;20478;-83
2022/09/25 06:20:10;;;;;;;0.30;0.30;;;9.30;99.90;;;;;;6088629;23;20100;-84
2022/09/25 06:22:43;;;;;;;0.30;0.30;;;9.40;99.90;;;;;;6065167;23;20022;-84
2022/09/25 06:25:10;;;;;;;1.00;0.43;;;9.30;99.90;;;;;;6065259;23;20037;-83
2022/09/25 06:27:37;;;;;;;0.57;0.22;;;9.30;99.90;;;;;;6087848;23;20051;-83
2022/09/25 06:30:04;;;;;;;0.82;0.50;;;9.30;99.90;;;;;;6112437;23;20030;-83
2022/09/25 06:32:31;;;;;;;0.43;0.38;;;9.30;99.90;;;;;;6086784;23;20673;-83
2022/09/25 06:34:58;;;;;;;0.32;0.30;;;9.40;99.90;;;;;;6087739;23;20028;-83
2022/09/25 06:37:25;;;;;;;0.63;0.40;;;9.40;99.90;;;;;;6063305;23;20105;-83
2022/09/25 06:39:52;;;;;;;0.20;0.20;;;9.40;99.90;;;;;;6088135;23;20022;-83
2022/09/25 06:42:20;;;;;;;0.55;0.30;;;9.40;99.90;;;;;;6088246;23;20026;-83
2022/09/25 06:44:47;;;;;;;0.45;0.30;;;9.50;99.90;;;;;;6064711;23;20041;-83
2022/09/25 06:47:14;;;;;;;0.40;0.30;;;9.50;99.90;;;;;;6062769;23;20025;-83
2022/09/25 06:49:45;;;;;;;0.52;0.40;;;9.50;99.90;;;;;;6088416;23;20022;-83
2022/09/25 06:52:12;;;;;;;0.20;0.20;;;9.50;99.90;;;;;;6087109;23;20026;-84
2022/09/25 06:54:39;;;;;;;0.68;0.30;;;9.60;99.90;;;;;;6088553;23;20022;-84
2022/09/25 06:57:11;;;;;;;0.52;0.28;;;9.60;99.90;;;;;;6065281;23;20096;-86
2022/09/25 06:59:38;;;;;;;0.40;0.40;;;9.60;99.90;;;;;;6062259;23;20097;-84
2022/09/25 07:04:51;;;;;;;0.35;0.30;;;9.70;99.90;;;;;;6088049;23;20081;-83
2022/09/25 07:07:19;;;;;;;0.38;0.30;;;9.80;99.90;;;;;;6059152;23;20030;-82
2022/09/25 07:09:47;;;;;;;1.10;0.40;;;9.80;99.90;;;;;;6060570;23;20109;-82
2022/09/25 07:12:15;;;;;;;0.82;0.50;;;9.90;99.90;;;;;;6083228;23;20346;-82
2022/09/25 07:14:45;;;;;;;0.75;0.55;;;9.90;99.90;;;;;;6083888;23;20037;-82
2022/09/25 07:17:13;;;;;;;0.50;0.40;;;10.00;99.90;;;;;;6083256;23;20333;-82
2022/09/25 07:19:40;;;;;;;0.98;0.40;;;10.00;99.90;;;;;;6083091;23;20509;-82
2022/09/25 07:22:06;;;;;;;1.17;0.60;;;10.10;99.90;;;;;;6108576;23;20070;-83
2022/09/25 07:24:33;;;;;;;1.05;0.57;;;10.10;99.90;;;;;;6059602;23;20060;-83
2022/09/25 07:27:00;;;;;;;0.45;0.40;;;10.20;99.90;;;;;;6059353;23;20022;-83
2022/09/25 07:29:27;;;;;;;0.55;0.35;;;10.30;99.90;;;;;;6035854;23;20036;-82
2022/09/25 07:31:54;;;;;;;0.70;0.47;;;10.30;99.90;;;;;;6083222;23;20049;-84
2022/09/25 07:34:21;;;;;;;0.82;0.55;;;10.40;99.90;;;;;;6083615;23;20620;-81
2022/09/25 07:36:51;;;;;;;1.27;0.60;;;10.40;99.90;;;;;;6111600;23;20037;-83
2022/09/25 07:39:18;;;;;;;2.13;0.88;;;10.50;99.90;;;;;;6064625;23;20022;-82
2022/09/25 07:41:45;;;;;;;1.90;0.60;;;10.50;99.90;;;;;;6087103;23;20026;-81
2022/09/25 07:44:12;;;;;;;2.28;0.70;;;10.60;99.90;;;;;;6112878;23;20030;-83
2022/09/25 07:47:01;;;;;;;1.85;1.00;;;10.70;99.90;;;;;;6070911;23;20037;-83
2022/09/25 07:49:31;;;;;;;0.60;0.52;;;10.70;99.90;;;;;;6086938;23;20030;-83
2022/09/25 07:51:58;;;;;;;1.60;0.80;;;10.80;99.90;;;;;;6086717;23;20323;-83
2022/09/25 07:54:25;;;;;;;3.70;1.27;;;10.90;99.90;;;;;;6087202;23;20030;-83
2022/09/25 07:56:52;;;;;;;0.88;0.60;;;11.00;99.90;;;;;;6062976;23;20044;-82
2022/09/25 07:59:19;;;;;;;1.75;0.68;;;11.00;99.90;;;;;;6090045;23;20026;-87
2022/09/25 08:01:46;;;;;;;2.53;0.90;;;11.10;99.90;;;;;;6062743;23;20022;-86
2022/09/25 08:04:20;;;;;;;2.28;1.02;;;11.20;99.90;;;;;;6089868;23;20065;-85
2022/09/25 08:06:46;;;;;;;2.55;0.88;;;11.20;99.90;;;;;;6087904;23;20085;-86
2022/09/25 08:09:14;;;;;;;1.83;0.70;;;11.30;99.90;;;;;;6068582;23;20108;-84
2022/09/25 08:11:41;;;;;;;1.85;0.80;;;11.30;99.90;;;;;;6091131;23;20045;-85
2022/09/25 08:14:08;;;;;;;1.77;1.20;;;11.40;99.90;;;;;;6068879;23;20490;-85
2022/09/25 08:16:35;;;;;;;1.85;1.02;;;11.50;99.90;;;;;;6067405;23;20430;-84
2022/09/25 08:19:02;;;;;;;2.20;0.90;;;11.50;99.90;;;;;;6066907;23;20021;-84
2022/09/25 08:21:32;;;;;;;3.28;0.90;;;11.60;99.90;;;;;;6067182;23;20037;-84
2022/09/25 08:24:00;;;;;;;1.50;0.90;;;11.60;99.90;;;;;;6068068;23;20462;-84
2022/09/25 08:26:30;;;;;;;2.22;0.90;;;11.70;99.90;;;;;;6068263;23;20028;-83
2022/09/25 08:28:58;;;;;;;1.65;1.00;;;11.70;99.90;;;;;;6067193;23;20513;-84
2022/09/25 08:31:28;;;;;;;2.72;0.95;;;11.80;99.90;;;;;;6091358;23;20084;-86
2022/09/25 08:33:55;;;;;;;1.50;0.63;;;11.80;99.90;;;;;;6067910;23;20029;-80
2022/09/25 08:36:42;;;;;;;1.30;0.82;;;11.90;99.90;;;;;;6111666;23;20029;-79
2022/09/25 08:39:09;;;;;;;1.30;0.80;;;12.00;99.90;;;;;;6086972;23;20113;-79
2022/09/25 08:41:50;;;;;;;1.83;0.60;;;12.00;99.90;;;;;;6111621;23;20053;-79
2022/09/25 08:44:46;;;;;;;0.70;0.47;;;12.00;99.90;;;;;;6086447;23;20038;-79
2022/09/25 08:50:23;;;;;;;0.82;0.50;;;12.20;99.90;;;;;;6111796;23;20030;-80
2022/09/25 08:53:02;;;;;;;1.17;0.60;;;12.30;99.90;;;;;;6085967;23;20076;-80
2022/09/25 08:58:34;;;;;;;0.80;0.50;;;12.40;99.90;;;;;;6091031;23;20164;-79
2022/09/25 09:01:03;;;;;;;1.10;0.73;;;12.50;99.90;;;;;;6086763;23;20025;-81
2022/09/25 09:03:31;;;;;;;1.38;0.93;;;12.60;99.90;;;;;;6085063;23;20029;-80
2022/09/25 09:06:06;;;;;;;1.05;0.60;;;12.70;99.90;;;;;;6085340;23;20026;-80
2022/09/25 09:08:35;;;;;;;1.60;0.75;;;12.80;99.90;;;;;;6085557;23;20080;-78
2022/09/25 09:11:06;;;;;;;1.25;0.70;;;12.80;99.90;;;;;;6086627;23;20030;-79
2022/09/25 09:13:50;;;;;;;2.10;0.57;;;12.90;99.90;;;;;;6088559;23;20028;-79
2022/09/25 09:16:33;;;;;;;2.03;0.60;;;12.90;99.90;;;;;;6085682;23;20113;-78
2022/09/25 09:19:04;;;;;;;1.48;0.73;;;12.90;99.90;;;;;;6085481;23;20121;-79
2022/09/25 09:21:36;;;;;;;2.80;0.75;;;13.00;99.90;;;;;;6084681;23;20090;-79
2022/09/25 09:24:15;;;;;;;3.45;0.98;;;13.10;99.90;;;;;;6084703;23;20087;-79
2022/09/25 09:27:13;;;;;;;1.75;0.70;;;13.10;99.90;;;;;;6110734;23;20050;-79
2022/09/25 09:29:40;;;;;;;1.65;0.50;;;13.20;99.90;;;;;;6089619;23;20049;-79
2022/09/25 09:32:38;;;;;;;0.63;0.50;;;13.20;99.90;;;;;;6112305;23;20026;-78
2022/09/25 09:35:23;;;;;;;0.93;0.63;;;13.30;99.90;;;;;;6112632;23;20372;-79
2022/09/25 09:38:16;;;;;;;1.00;0.60;;;13.40;99.90;;;;;;6110275;23;20049;-79
2022/09/25 09:41:12;;;;;;;1.50;0.52;;;13.50;99.90;;;;;;6111727;23;20148;-79
2022/09/25 09:43:57;;;;;;;1.95;0.60;;;13.50;99.90;;;;;;6044094;23;20033;-79
2022/09/25 09:46:26;;;;;;;1.13;0.52;;;13.60;99.90;;;;;;6110307;23;20077;-79
2022/09/25 09:49:11;;;;;;;2.67;0.60;;;13.60;99.90;;;;;;6110202;23;20033;-78
2022/09/25 09:52:21;;;;;;;2.25;0.90;;;13.80;99.90;;;;;;6084117;23;20025;-80
2022/09/25 09:54:53;;;;;;;0.90;0.50;;;13.90;99.90;;;;;;5968326;23;20106;-79
2022/09/25 09:57:25;;;;;;;1.90;0.77;;;14.10;99.90;;;;;;6049560;23;20861;-79
2022/09/25 10:00:04;;;;;;;1.08;0.60;;;14.10;99.90;;;;;;6085117;23;20030;-80
2022/09/25 10:02:33;;;;;;;1.35;0.40;;;14.10;99.90;;;;;;6109923;23;20331;-79
2022/09/25 10:05:02;;;;;;;1.20;0.77;;;14.30;99.90;;;;;;6083927;23;20111;-80
2022/09/25 10:07:30;;;;;;;0.95;0.70;;;14.40;99.90;;;;;;6082839;23;20033;-81
2022/09/25 10:09:57;;;;;;;1.40;0.70;;;14.50;99.90;;;;;;6085131;23;20033;-79
2022/09/25 10:12:33;;;;;;;2.63;0.70;;;14.50;99.90;;;;;;6084280;23;20100;-79
2022/09/25 10:15:06;;;;;;;2.30;0.90;;;14.50;99.90;;;;;;6085001;23;20026;-82
2022/09/25 10:17:34;;;;;;;1.13;0.60;;;14.60;99.90;;;;;;6059551;23;20026;-81
2022/09/25 10:20:17;;;;;;;2.50;0.85;;;14.80;99.90;;;;;;6060947;23;20100;-81
2022/09/25 10:22:46;;;;;;;1.48;0.50;;;14.80;99.90;;;;;;6084214;23;20377;-79
2022/09/25 10:25:13;;;;;;;2.78;0.68;;;14.90;99.90;;;;;;6084871;23;20281;-79
2022/09/25 10:27:44;;;;;;;0.90;0.40;;;14.90;99.90;;;;;;6107553;23;20026;-79
2022/09/25 10:30:19;;;;;;;1.05;0.50;;;15.10;99.90;;;;;;6084666;23;20965;-79
2022/09/25 10:33:27;;;;;;;0.80;0.40;;;15.10;99.90;;;;;;6059804;23;20022;-80
2022/09/25 10:35:55;;;;;;;1.20;0.50;;;15.20;99.90;;;;;;6058157;23;20899;-79
2022/09/25 10:38:43;;;;;;;0.95;0.50;;;15.20;99.90;;;;;;6084082;23;20044;-79
2022/09/25 10:41:11;;;;;;;0.52;0.30;;;15.20;99.90;;;;;;6084081;23;20121;-79
2022/09/25 10:43:59;;;;;;;0.75;0.50;;;15.30;99.90;;;;;;6109752;23;20120;-79
2022/09/25 10:52:12;;;;;;;0.52;0.40;;;15.40;99.90;;;;;;6107581;23;20580;-79
2022/09/25 10:54:39;;;;;;;1.30;0.40;;;15.20;99.90;;;;;;6110298;23;20025;-80
2022/09/25 10:57:33;;;;;;;1.92;0.80;;;15.30;99.90;;;;;;6085508;23;20097;-79
2022/09/25 11:00:01;;;;;;;0.73;0.38;;;15.50;99.90;;;;;;6083956;23;20034;-80
2022/09/25 11:02:38;;;;;;;0.55;0.35;;;15.70;99.90;;;;;;6083615;23;20113;-80
2022/09/25 11:05:18;;;;;;;0.82;0.50;;;15.90;99.90;;;;;;6083615;23;20033;-80
2022/09/25 11:07:53;;;;;;;0.73;0.40;;;16.10;99.90;;;;;;6108450;23;20359;-80
2022/09/25 11:10:22;;;;;;;0.82;0.30;;;16.10;99.90;;;;;;6084641;23;20030;-79
2022/09/25 11:12:50;;;;;;;2.17;0.43;;;16.10;99.90;;;;;;6109722;23;20058;-79
2022/09/25 11:15:22;;;;;;;1.10;0.50;;;16.10;99.90;;;;;;6109834;23;20052;-80
2022/09/25 11:17:50;;;;;;;1.63;0.60;;;16.10;99.90;;;;;;6082925;23;20021;-80
2022/09/25 11:20:28;;;;;;;1.08;0.47;;;16.10;99.90;;;;;;6084120;23;20025;-79
2022/09/25 11:23:12;;;;;;;0.40;0.30;;;16.00;99.90;;;;;;6083284;23;20446;-79
2022/09/25 11:25:55;;;;;;;0.68;0.50;;;16.00;99.90;;;;;;6111032;23;20028;-80
2022/09/25 11:28:43;;;;;;;0.52;0.32;;;16.30;99.90;;;;;;6086350;23;20561;-80
2022/09/25 11:31:31;;;;;;;3.17;0.65;;;16.70;99.30;;;;;;6083657;23;20346;-79
2022/09/25 11:34:43;;;;;;;0.60;0.50;;;17.10;98.60;;;;;;6085263;23;20033;-79
2022/09/25 11:37:31;;;;;;;1.45;0.90;;;17.50;98.50;;;;;;6039197;23;20525;-79
2022/09/25 11:43:50;;;;;;;0.70;0.40;;;18.60;97.60;;;;;;6109258;23;20193;-80
2022/09/25 11:46:40;;;;;;;0.63;0.50;;;19.00;96.60;;;;;;6030116;23;20470;-79
2022/09/25 11:49:15;;;;;;;0.40;0.30;;;19.40;95.80;;;;;;6083822;23;20036;-79
2022/09/25 11:52:12;;;;;;;0.70;0.40;;;19.00;94.90;;;;;;6082714;23;20518;-79
2022/09/25 11:55:22;;;;;;;0.60;0.47;;;18.90;94.70;;;;;;6072703;23;20324;-79
2022/09/25 11:58:13;;;;;;;0.55;0.30;;;19.00;94.80;;;;;;5966009;23;20251;-80
2022/09/25 12:01:15;;;;;;;0.93;0.43;;;19.00;94.10;;;;;;5946975;23;20055;-79
2022/09/25 12:04:13;;;;;;;1.05;0.40;;;18.70;94.50;;;;;;6080055;23;20026;-80
2022/09/25 12:06:52;;;;;;;0.57;0.20;;;18.40;93.60;;;;;;6083883;23;20086;-79
2022/09/25 12:09:30;;;;;;;1.10;0.80;;;18.30;93.70;;;;;;6085138;23;20411;-80
2022/09/25 12:12:07;;;;;;;0.80;0.70;;;18.40;94.10;;;;;;6109799;23;20045;-80
2022/09/25 12:14:55;;;;;;;1.45;0.60;;;18.80;93.30;;;;;;6085067;23;20028;-79
2022/09/25 12:17:32;;;;;;;0.52;0.32;;;18.60;92.90;;;;;;6082451;23;20026;-80
2022/09/25 12:20:06;;;;;;;1.45;0.50;;;18.40;92.60;;;;;;6109725;23;20026;-79
2022/09/25 12:22:50;;;;;;;1.88;0.50;;;18.30;93.10;;;;;;6084245;23;20026;-79
2022/09/25 12:25:30;;;;;;;0.73;0.50;;;18.20;93.30;;;;;;6085662;23;20056;-79
2022/09/25 12:28:19;;;;;;;0.40;0.40;;;18.10;93.40;;;;;;6084013;23;20033;-80
2022/09/25 12:30:54;;;;;;;0.40;0.35;;;18.00;92.90;;;;;;6111015;23;20084;-79
2022/09/25 12:33:54;;;;;;;0.50;0.20;;;18.10;93.40;;;;;;6108488;23;20414;-79
2022/09/25 12:36:35;;;;;;;0.90;0.50;;;18.40;93.30;;;;;;6099472;23;20090;-79
2022/09/25 12:39:40;;;;;;;0.30;0.30;;;18.90;93.10;;;;;;6083857;23;20323;-78
2022/09/25 12:42:16;;;;;;;0.50;0.40;;;18.80;92.00;;;;;;6062133;23;20548;-86
2022/09/25 12:45:00;;;;;;;0.52;0.50;;;18.60;92.10;;;;;;6066172;23;20121;-87
2022/09/25 12:47:57;;;;;;;0.30;0.30;;;19.00;91.40;;;;;;6064517;23;20018;-87
2022/09/25 12:50:28;;;;;;;0.50;0.40;;;19.30;91.60;;;;;;6066258;23;20022;-88
2022/09/25 12:52:59;;;;;;;0.30;0.30;;;19.40;90.40;;;;;;6063196;23;20472;-86
2022/09/25 12:55:39;;;;;;;0.55;0.40;;;19.80;91.00;;;;;;6089461;23;20415;-87
2022/09/25 12:58:26;;;;;;;0.30;0.30;;;20.30;90.80;;;;;;6087902;23;20036;-87
2022/09/25 13:01:03;;;;;;;1.33;0.80;;;20.90;88.80;;;;;;6090261;23;20420;-87
2022/09/25 13:04:07;;;;;;;0.45;0.32;;;21.00;89.20;;;;;;6088323;23;20026;-87
2022/09/25 13:07:04;;;;;;;0.40;0.40;;;20.80;87.00;;;;;;6059502;23;20025;-85
2022/09/25 13:09:39;;;;;;;0.30;0.30;;;20.70;89.40;;;;;;6089055;23;20026;-87
2022/09/25 13:12:08;;;;;;;0.50;0.30;;;20.60;88.90;;;;;;6087145;23;20536;-86
2022/09/25 13:14:38;;;;;;;0.57;0.35;;;20.30;86.90;;;;;;6088974;23;20070;-85
2022/09/25 13:17:09;;;;;;;0.77;0.40;;;19.70;87.50;;;;;;6086130;23;20026;-86
2022/09/25 13:20:19;;;;;;;0.68;0.47;;;19.40;88.60;;;;;;6088975;23;20072;-87
2022/09/25 13:22:50;;;;;;;0.57;0.30;;;19.10;90.50;;;;;;6086706;23;20485;-87
2022/09/25 13:25:18;;;;;;;0.55;0.30;;;19.00;89.30;;;;;;6063168;23;20037;-85
2022/09/25 13:27:55;;;;;;;0.80;0.40;;;18.70;89.40;;;;;;6085511;23;20073;-88
2022/09/25 13:30:24;;;;;;;1.00;0.30;;;18.30;90.00;;;;;;6064021;23;20153;-82
2022/09/25 13:32:58;;;;;;;0.65;0.40;;;18.10;90.20;;;;;;6060389;23;20022;-82
2022/09/25 13:35:25;;;;;;;0.32;0.30;;;17.90;90.60;;;;;;6063492;23;20109;-85
2022/09/25 13:37:54;;;;;;;0.32;0.32;;;17.80;92.10;;;;;;6060423;23;20018;-81
2022/09/25 13:40:44;;;;;;;0.28;0.20;;;17.70;91.40;;;;;;6084793;23;20117;-81
2022/09/25 13:43:19;;;;;;;1.10;0.30;;;17.70;91.60;;;;;;6090371;23;20105;-82
2022/09/25 13:46:22;;;;;;;0.35;0.30;;;17.60;91.60;;;;;;6085897;23;20069;-83
2022/09/25 13:48:54;;;;;;;0.22;0.20;;;17.50;91.70;;;;;;6061146;23;20078;-85